sensor_id;sensor_type;location;lat;lon;timestamp;pressure;altitude;pressure_sealevel;temperature;humidity
37298;BME280;30517;51.932;4.278;2022-12-24T00:01:52;100632.56;;;10.07;76.34
37298;BME280;30517;51.932;4.278;2022-12-24T00:04:33;100637.81;;;10.14;76.41
37298;BME280;30517;51.932;4.278;2022-12-24T00:07:14;100622.03;;;10.07;76.26
37298;BME280;30517;51.932;4.278;2022-12-24T00:09:55;100622.91;;;10.04;76.11
37298;BME280;30517;51.932;4.278;2022-12-24T00:12:35;100629.06;;;10.02;76.48
37298;BME280;30517;51.932;4.278;2022-12-24T00:15:16;100638.75;;;10.07;76.45
37298;BME280;30517;51.932;4.278;2022-12-24T00:17:57;100655.38;;;10.12;76.52
37298;BME280;30517;51.932;4.278;2022-12-24T00:20:38;100644.00;;;10.10;76.36
37298;BME280;30517;51.932;4.278;2022-12-24T00:23:19;100647.47;;;10.12;76.50
37298;BME280;30517;51.932;4.278;2022-12-24T00:26:00;100636.97;;;10.02;76.26
37298;BME280;30517;51.932;4.278;2022-12-24T00:28:41;100619.47;;;9.91;76.34
37298;BME280;30517;51.932;4.278;2022-12-24T00:31:22;100656.28;;;10.07;76.28
37298;BME280;30517;51.932;4.278;2022-12-24T00:34:03;100661.56;;;10.08;76.38
37298;BME280;30517;51.932;4.278;2022-12-24T00:36:43;100669.47;;;10.08;76.47
37298;BME280;30517;51.932;4.278;2022-12-24T00:39:24;100682.66;;;10.08;76.33
37298;BME280;30517;51.932;4.278;2022-12-24T00:42:05;100685.28;;;10.08;76.38
37298;BME280;30517;51.932;4.278;2022-12-24T00:44:46;100687.94;;;10.04;76.43
37298;BME280;30517;51.932;4.278;2022-12-24T00:47:27;100681.78;;;10.03;76.23
37298;BME280;30517;51.932;4.278;2022-12-24T00:50:08;100686.16;;;10.06;76.48
37298;BME280;30517;51.932;4.278;2022-12-24T00:52:48;100680.06;;;9.90;76.56
37298;BME280;30517;51.932;4.278;2022-12-24T00:55:29;100699.34;;;9.98;76.84
37298;BME280;30517;51.932;4.278;2022-12-24T00:58:10;100688.81;;;9.98;76.82
37298;BME280;30517;51.932;4.278;2022-12-24T01:00:51;100702.00;;;9.96;76.80
37298;BME280;30517;51.932;4.278;2022-12-24T01:03:32;100666.03;;;9.79;76.42
37298;BME280;30517;51.932;4.278;2022-12-24T01:06:18;100708.16;;;9.94;76.66
37298;BME280;30517;51.932;4.278;2022-12-24T01:08:59;100708.16;;;9.91;77.14
37298;BME280;30517;51.932;4.278;2022-12-24T01:11:40;100703.78;;;9.94;76.75
37298;BME280;30517;51.932;4.278;2022-12-24T01:14:21;100668.66;;;9.66;76.61
37298;BME280;30517;51.932;4.278;2022-12-24T01:17:02;100719.56;;;9.90;76.97
37298;BME280;30517;51.932;4.278;2022-12-24T01:19:43;100723.09;;;9.84;76.89
37298;BME280;30517;51.932;4.278;2022-12-24T01:22:24;100723.09;;;9.84;76.82
37298;BME280;30517;51.932;4.278;2022-12-24T01:25:05;100696.75;;;9.69;77.00
37298;BME280;30517;51.932;4.278;2022-12-24T01:27:46;100714.31;;;9.82;76.88
37298;BME280;30517;51.932;4.278;2022-12-24T01:30:26;100718.69;;;9.88;76.63
37298;BME280;30517;51.932;4.278;2022-12-24T01:33:07;100723.13;;;9.78;76.47
37298;BME280;30517;51.932;4.278;2022-12-24T01:35:48;100738.00;;;9.93;76.50
37298;BME280;30517;51.932;4.278;2022-12-24T01:38:29;100731.00;;;9.84;76.44
37298;BME280;30517;51.932;4.278;2022-12-24T01:41:15;100682.75;;;9.47;76.74
37298;BME280;30517;51.932;4.278;2022-12-24T01:44:30;100755.56;;;9.91;76.47
37298;BME280;30517;51.932;4.278;2022-12-24T01:47:17;100741.56;;;9.86;76.54
37298;BME280;30517;51.932;4.278;2022-12-24T01:50:01;100747.66;;;9.88;76.71
37298;BME280;30517;51.932;4.278;2022-12-24T01:52:43;100760.84;;;9.85;76.71
37298;BME280;30517;51.932;4.278;2022-12-24T01:55:24;100709.06;;;9.68;76.38
37298;BME280;30517;51.932;4.278;2022-12-24T01:58:06;100740.66;;;9.84;76.37
37298;BME280;30517;51.932;4.278;2022-12-24T02:00:47;100767.00;;;9.90;76.60
37298;BME280;30517;51.932;4.278;2022-12-24T02:03:28;100748.56;;;9.81;76.43
37298;BME280;30517;51.932;4.278;2022-12-24T02:06:09;100731.00;;;9.58;76.68
37298;BME280;30517;51.932;4.278;2022-12-24T02:08:54;100736.28;;;9.67;76.17
37298;BME280;30517;51.932;4.278;2022-12-24T02:11:38;100774.91;;;9.90;76.31
37298;BME280;30517;51.932;4.278;2022-12-24T02:14:19;100776.66;;;9.88;76.27
37298;BME280;30517;51.932;4.278;2022-12-24T02:17:08;100744.16;;;9.72;76.51
37298;BME280;30517;51.932;4.278;2022-12-24T02:32:38;100772.28;;;9.73;76.76
37298;BME280;30517;51.932;4.278;2022-12-24T02:35:34;100782.81;;;9.78;76.96
37298;BME280;30517;51.932;4.278;2022-12-24T02:38:25;100770.53;;;9.81;76.80
37298;BME280;30517;51.932;4.278;2022-12-24T02:41:19;100702.06;;;9.40;76.56
37298;BME280;30517;51.932;4.278;2022-12-24T02:44:02;100769.66;;;9.84;76.04
37298;BME280;30517;51.932;4.278;2022-12-24T02:46:44;100773.16;;;9.86;75.82
37298;BME280;30517;51.932;4.278;2022-12-24T02:49:26;100763.50;;;9.79;75.87
37298;BME280;30517;51.932;4.278;2022-12-24T02:52:06;100797.75;;;9.85;76.43
37298;BME280;30517;51.932;4.278;2022-12-24T02:54:47;100790.69;;;9.74;76.31
37298;BME280;30517;51.932;4.278;2022-12-24T03:06:42;100817.94;;;9.84;76.07
37298;BME280;30517;51.932;4.278;2022-12-24T03:09:29;100824.97;;;9.82;76.25
37298;BME280;30517;51.932;4.278;2022-12-24T03:12:17;100829.34;;;9.80;75.99
37298;BME280;30517;51.932;4.278;2022-12-24T03:15:01;100829.38;;;9.83;76.13
37298;BME280;30517;51.932;4.278;2022-12-24T03:17:45;100815.28;;;9.77;75.62
37298;BME280;30517;51.932;4.278;2022-12-24T03:20:34;100818.81;;;9.75;75.79
37298;BME280;30517;51.932;4.278;2022-12-24T03:23:16;100832.00;;;9.83;76.03
37298;BME280;30517;51.932;4.278;2022-12-24T03:25:59;100826.72;;;9.82;76.29
37298;BME280;30517;51.932;4.278;2022-12-24T03:28:41;100827.59;;;9.81;75.77
37298;BME280;30517;51.932;4.278;2022-12-24T03:31:23;100838.13;;;9.79;76.01
37298;BME280;30517;51.932;4.278;2022-12-24T03:34:04;100813.53;;;9.68;75.58
37298;BME280;30517;51.932;4.278;2022-12-24T03:36:46;100811.78;;;9.71;76.32
37298;BME280;30517;51.932;4.278;2022-12-24T03:39:27;100807.38;;;9.66;75.90
37298;BME280;30517;51.932;4.278;2022-12-24T03:42:08;100740.66;;;9.33;75.88
37298;BME280;30517;51.932;4.278;2022-12-24T03:44:49;100804.75;;;9.61;76.08
37298;BME280;30517;51.932;4.278;2022-12-24T03:47:30;100817.03;;;9.71;75.96
37298;BME280;30517;51.932;4.278;2022-12-24T03:50:11;100828.47;;;9.81;76.00
37298;BME280;30517;51.932;4.278;2022-12-24T03:52:53;100747.66;;;9.31;75.94
37298;BME280;30517;51.932;4.278;2022-12-24T03:55:34;100798.59;;;9.64;76.01
37298;BME280;30517;51.932;4.278;2022-12-24T03:58:14;100837.25;;;9.80;75.74
37298;BME280;30517;51.932;4.278;2022-12-24T04:00:55;100817.06;;;9.67;75.83
37298;BME280;30517;51.932;4.278;2022-12-24T04:03:36;100826.72;;;9.72;75.95
37298;BME280;30517;51.932;4.278;2022-12-24T04:06:20;100848.69;;;9.81;75.56
37298;BME280;30517;51.932;4.278;2022-12-24T04:09:01;100756.44;;;9.25;75.71
37298;BME280;30517;51.932;4.278;2022-12-24T04:11:44;100852.19;;;9.80;75.72
37298;BME280;30517;51.932;4.278;2022-12-24T04:14:24;100831.09;;;9.67;76.19
37298;BME280;30517;51.932;4.278;2022-12-24T04:17:05;100844.28;;;9.80;75.69
37298;BME280;30517;51.932;4.278;2022-12-24T04:19:46;100824.06;;;9.66;75.82
37298;BME280;30517;51.932;4.278;2022-12-24T04:22:27;100859.19;;;9.74;75.91
37298;BME280;30517;51.932;4.278;2022-12-24T04:25:08;100854.81;;;9.78;75.93
37298;BME280;30517;51.932;4.278;2022-12-24T04:27:49;100860.06;;;9.77;76.22
37298;BME280;30517;51.932;4.278;2022-12-24T04:30:30;100865.34;;;9.77;76.18
37298;BME280;30517;51.932;4.278;2022-12-24T04:33:10;100840.75;;;9.62;75.83
37298;BME280;30517;51.932;4.278;2022-12-24T04:35:51;100868.84;;;9.77;75.79
37298;BME280;30517;51.932;4.278;2022-12-24T04:38:33;100872.38;;;9.79;75.58
37298;BME280;30517;51.932;4.278;2022-12-24T04:41:20;100842.50;;;9.57;75.86
37298;BME280;30517;51.932;4.278;2022-12-24T04:44:00;100876.78;;;9.79;75.42
37298;BME280;30517;51.932;4.278;2022-12-24T04:46:41;100875.88;;;9.77;76.13
37298;BME280;30517;51.932;4.278;2022-12-24T04:49:22;100860.94;;;9.66;75.58
37298;BME280;30517;51.932;4.278;2022-12-24T04:52:03;100877.66;;;9.76;76.08
37298;BME280;30517;51.932;4.278;2022-12-24T04:54:44;100870.63;;;9.77;75.71
37298;BME280;30517;51.932;4.278;2022-12-24T04:57:25;100876.75;;;9.71;76.30
37298;BME280;30517;51.932;4.278;2022-12-24T05:00:06;100862.69;;;9.58;76.03
37298;BME280;30517;51.932;4.278;2022-12-24T05:02:47;100888.19;;;9.78;75.80
37298;BME280;30517;51.932;4.278;2022-12-24T05:05:28;100863.59;;;9.68;75.46
37298;BME280;30517;51.932;4.278;2022-12-24T05:08:09;100894.31;;;9.77;75.66
37298;BME280;30517;51.932;4.278;2022-12-24T05:10:57;100896.09;;;9.79;75.85
37298;BME280;30517;51.932;4.278;2022-12-24T05:13:38;100873.25;;;9.64;75.81
37298;BME280;30517;51.932;4.278;2022-12-24T05:16:21;100893.44;;;9.76;75.80
37298;BME280;30517;51.932;4.278;2022-12-24T05:19:03;100860.03;;;9.58;75.84
37298;BME280;30517;51.932;4.278;2022-12-24T05:21:44;100889.06;;;9.73;75.83
37298;BME280;30517;51.932;4.278;2022-12-24T05:24:44;100880.25;;;9.71;75.85
37298;BME280;30517;51.932;4.278;2022-12-24T05:27:44;100881.16;;;9.80;75.70
37298;BME280;30517;51.932;4.278;2022-12-24T05:30:25;100877.66;;;9.79;75.50
37298;BME280;30517;51.932;4.278;2022-12-24T05:33:06;100889.94;;;9.75;75.82
37298;BME280;30517;51.932;4.278;2022-12-24T05:35:47;100897.84;;;9.75;76.09
37298;BME280;30517;51.932;4.278;2022-12-24T05:38:28;100893.44;;;9.71;76.00
37298;BME280;30517;51.932;4.278;2022-12-24T05:41:09;100912.75;;;9.80;75.61
37298;BME280;30517;51.932;4.278;2022-12-24T05:43:50;100915.41;;;9.77;75.90
37298;BME280;30517;51.932;4.278;2022-12-24T05:46:30;100867.06;;;9.55;76.32
37298;BME280;30517;51.932;4.278;2022-12-24T05:49:12;100907.50;;;9.77;76.04
37298;BME280;30517;51.932;4.278;2022-12-24T05:51:52;100908.38;;;9.69;75.93
37298;BME280;30517;51.932;4.278;2022-12-24T05:54:33;100917.16;;;9.76;75.84
37298;BME280;30517;51.932;4.278;2022-12-24T05:57:15;100838.91;;;9.26;76.25
37298;BME280;30517;51.932;4.278;2022-12-24T05:59:56;100857.34;;;9.34;75.98
37298;BME280;30517;51.932;4.278;2022-12-24T06:02:36;100934.72;;;9.72;76.28
37298;BME280;30517;51.932;4.278;2022-12-24T06:05:17;100940.88;;;9.73;76.34
37298;BME280;30517;51.932;4.278;2022-12-24T06:07:58;100932.91;;;9.64;76.02
37298;BME280;30517;51.932;4.278;2022-12-24T06:10:39;100921.50;;;9.59;76.39
37298;BME280;30517;51.932;4.278;2022-12-24T06:13:20;100945.25;;;9.72;75.95
37298;BME280;30517;51.932;4.278;2022-12-24T06:16:02;100930.28;;;9.59;75.93
37298;BME280;30517;51.932;4.278;2022-12-24T06:18:44;100926.75;;;9.54;76.33
37298;BME280;30517;51.932;4.278;2022-12-24T06:21:25;100950.53;;;9.69;76.23
37298;BME280;30517;51.932;4.278;2022-12-24T06:24:06;100950.53;;;9.69;76.34
37298;BME280;30517;51.932;4.278;2022-12-24T06:26:47;100954.88;;;9.66;76.12
37298;BME280;30517;51.932;4.278;2022-12-24T06:29:28;100953.13;;;9.66;76.12
37298;BME280;30517;51.932;4.278;2022-12-24T06:32:08;100935.53;;;9.64;76.09
37298;BME280;30517;51.932;4.278;2022-12-24T06:34:49;100937.31;;;9.57;76.51
37298;BME280;30517;51.932;4.278;2022-12-24T06:37:30;100918.84;;;9.48;76.39
37298;BME280;30517;51.932;4.278;2022-12-24T06:40:11;100952.25;;;9.67;76.12
37298;BME280;30517;51.932;4.278;2022-12-24T06:42:51;100957.53;;;9.70;76.16
37298;BME280;30517;51.932;4.278;2022-12-24T06:45:32;100947.00;;;9.70;76.33
37298;BME280;30517;51.932;4.278;2022-12-24T06:48:14;100927.59;;;9.50;76.54
37298;BME280;30517;51.932;4.278;2022-12-24T06:50:55;100956.66;;;9.68;76.09
37298;BME280;30517;51.932;4.278;2022-12-24T06:53:38;100962.81;;;9.70;76.16
37298;BME280;30517;51.932;4.278;2022-12-24T06:56:19;100962.81;;;9.67;75.87
37298;BME280;30517;51.932;4.278;2022-12-24T06:59:00;100972.47;;;9.70;76.07
37298;BME280;30517;51.932;4.278;2022-12-24T07:01:41;100979.47;;;9.71;75.74
37298;BME280;30517;51.932;4.278;2022-12-24T07:04:22;100932.88;;;9.47;75.66
37298;BME280;30517;51.932;4.278;2022-12-24T07:07:03;100939.94;;;9.54;75.64
37298;BME280;30517;51.932;4.278;2022-12-24T07:09:43;100956.59;;;9.51;76.16
37298;BME280;30517;51.932;4.278;2022-12-24T07:12:25;100953.09;;;9.51;76.33
37298;BME280;30517;51.932;4.278;2022-12-24T07:15:06;100979.47;;;9.65;75.94
37298;BME280;30517;51.932;4.278;2022-12-24T07:17:47;100993.53;;;9.68;75.88
37298;BME280;30517;51.932;4.278;2022-12-24T07:20:28;100990.00;;;9.62;76.28
37298;BME280;30517;51.932;4.278;2022-12-24T07:23:09;100989.97;;;9.54;76.12
37298;BME280;30517;51.932;4.278;2022-12-24T07:25:49;100978.56;;;9.53;75.73
37298;BME280;30517;51.932;4.278;2022-12-24T07:28:30;101007.53;;;9.57;75.89
37298;BME280;30517;51.932;4.278;2022-12-24T07:31:11;101005.81;;;9.62;75.82
37298;BME280;30517;51.932;4.278;2022-12-24T07:33:52;101034.78;;;9.65;75.97
37298;BME280;30517;51.932;4.278;2022-12-24T07:36:33;101023.38;;;9.67;75.77
37298;BME280;30517;51.932;4.278;2022-12-24T07:39:13;101013.66;;;9.54;76.04
37298;BME280;30517;51.932;4.278;2022-12-24T07:41:54;101007.50;;;9.52;75.41
37298;BME280;30517;51.932;4.278;2022-12-24T07:44:35;101036.53;;;9.64;75.64
37298;BME280;30517;51.932;4.278;2022-12-24T07:47:16;101040.00;;;9.60;75.74
37298;BME280;30517;51.932;4.278;2022-12-24T07:49:56;101033.00;;;9.56;75.88
37298;BME280;30517;51.932;4.278;2022-12-24T07:52:38;101053.22;;;9.65;75.81
37298;BME280;30517;51.932;4.278;2022-12-24T07:55:19;101062.00;;;9.65;75.78
37298;BME280;30517;51.932;4.278;2022-12-24T07:58:00;101068.09;;;9.58;75.84
37298;BME280;30517;51.932;4.278;2022-12-24T08:00:41;101071.63;;;9.60;75.44
37298;BME280;30517;51.932;4.278;2022-12-24T08:03:21;101063.72;;;9.60;75.70
37298;BME280;30517;51.932;4.278;2022-12-24T08:06:02;101064.59;;;9.59;75.75
37298;BME280;30517;51.932;4.278;2022-12-24T08:08:43;101076.91;;;9.65;75.42
37298;BME280;30517;51.932;4.278;2022-12-24T08:11:24;101050.47;;;9.46;75.20
37298;BME280;30517;51.932;4.278;2022-12-24T08:14:05;101057.50;;;9.49;75.83
37298;BME280;30517;51.932;4.278;2022-12-24T08:16:45;101084.81;;;9.65;75.43
37298;BME280;30517;51.932;4.278;2022-12-24T08:19:26;101096.22;;;9.59;75.33
37298;BME280;30517;51.932;4.278;2022-12-24T08:22:07;101075.06;;;9.50;75.61
37298;BME280;30517;51.932;4.278;2022-12-24T08:24:48;101084.72;;;9.48;75.63
37298;BME280;30517;51.932;4.278;2022-12-24T08:27:28;101097.94;;;9.57;75.23
37298;BME280;30517;51.932;4.278;2022-12-24T08:30:10;101101.47;;;9.56;75.86
37298;BME280;30517;51.932;4.278;2022-12-24T08:32:51;101118.19;;;9.64;75.35
37298;BME280;30517;51.932;4.278;2022-12-24T08:35:32;101094.34;;;9.44;75.78
37298;BME280;30517;51.932;4.278;2022-12-24T08:38:12;101125.19;;;9.59;75.66
37298;BME280;30517;51.932;4.278;2022-12-24T08:40:54;101129.56;;;9.63;75.33
37298;BME280;30517;51.932;4.278;2022-12-24T08:43:35;101098.72;;;9.42;75.78
37298;BME280;30517;51.932;4.278;2022-12-24T08:46:16;101142.75;;;9.62;75.28
37298;BME280;30517;51.932;4.278;2022-12-24T08:48:57;101113.66;;;9.45;75.67
37298;BME280;30517;51.932;4.278;2022-12-24T08:51:38;101155.00;;;9.61;75.51
37298;BME280;30517;51.932;4.278;2022-12-24T08:54:19;101145.38;;;9.63;75.28
37298;BME280;30517;51.932;4.278;2022-12-24T08:57:01;101135.63;;;9.50;75.33
37298;BME280;30517;51.932;4.278;2022-12-24T08:59:42;101140.88;;;9.47;75.88
37298;BME280;30517;51.932;4.278;2022-12-24T09:02:23;101162.91;;;9.58;76.04
37298;BME280;30517;51.932;4.278;2022-12-24T09:05:03;101147.97;;;9.54;75.61
37298;BME280;30517;51.932;4.278;2022-12-24T09:07:44;101137.41;;;9.48;75.97
37298;BME280;30517;51.932;4.278;2022-12-24T09:10:25;101117.13;;;9.39;75.76
37298;BME280;30517;51.932;4.278;2022-12-24T09:13:06;101161.16;;;9.57;76.07
37298;BME280;30517;51.932;4.278;2022-12-24T09:15:54;101127.66;;;9.38;75.67
37298;BME280;30517;51.932;4.278;2022-12-24T09:18:35;101173.44;;;9.61;75.83
37298;BME280;30517;51.932;4.278;2022-12-24T09:21:16;101168.13;;;9.49;75.54
37298;BME280;30517;51.932;4.278;2022-12-24T09:23:57;101171.66;;;9.56;75.65
37298;BME280;30517;51.932;4.278;2022-12-24T09:26:40;101191.00;;;9.56;75.79
37298;BME280;30517;51.932;4.278;2022-12-24T09:29:21;101187.50;;;9.63;75.87
37298;BME280;30517;51.932;4.278;2022-12-24T09:32:02;101148.72;;;9.38;75.87
37298;BME280;30517;51.932;4.278;2022-12-24T09:34:43;101191.94;;;9.67;75.92
37298;BME280;30517;51.932;4.278;2022-12-24T09:37:24;101174.34;;;9.59;75.68
37298;BME280;30517;51.932;4.278;2022-12-24T09:40:05;101199.84;;;9.69;75.64
37298;BME280;30517;51.932;4.278;2022-12-24T09:42:52;101181.34;;;9.61;75.56
37298;BME280;30517;51.932;4.278;2022-12-24T09:45:37;101206.88;;;9.67;75.38
37298;BME280;30517;51.932;4.278;2022-12-24T09:48:27;101210.41;;;9.70;75.76
37298;BME280;30517;51.932;4.278;2022-12-24T09:51:30;101210.38;;;9.66;75.92
37298;BME280;30517;51.932;4.278;2022-12-24T09:57:16;101198.03;;;9.59;75.80
37298;BME280;30517;51.932;4.278;2022-12-24T10:00:00;101208.56;;;9.59;76.18
37298;BME280;30517;51.932;4.278;2022-12-24T10:02:42;101227.09;;;9.71;75.97
37298;BME280;30517;51.932;4.278;2022-12-24T10:11:06;101228.88;;;9.73;75.53
37298;BME280;30517;51.932;4.278;2022-12-24T10:16:45;101236.75;;;9.70;75.71
37298;BME280;30517;51.932;4.278;2022-12-24T10:22:36;101228.84;;;9.72;76.12
37298;BME280;30517;51.932;4.278;2022-12-24T10:25:28;101230.53;;;9.64;76.17
37298;BME280;30517;51.932;4.278;2022-12-24T10:28:16;101227.94;;;9.65;76.12
37298;BME280;30517;51.932;4.278;2022-12-24T10:31:00;101222.56;;;9.53;76.58
37298;BME280;30517;51.932;4.278;2022-12-24T10:33:46;101243.69;;;9.64;76.60
37298;BME280;30517;51.932;4.278;2022-12-24T10:36:30;101247.13;;;9.52;77.47
37298;BME280;30517;51.932;4.278;2022-12-24T10:39:17;101246.28;;;9.58;76.99
37298;BME280;30517;51.932;4.278;2022-12-24T10:41:59;101242.78;;;9.54;77.48
37298;BME280;30517;51.932;4.278;2022-12-24T10:44:40;101248.06;;;9.60;77.24
37298;BME280;30517;51.932;4.278;2022-12-24T10:47:22;101241.94;;;9.61;76.96
37298;BME280;30517;51.932;4.278;2022-12-24T10:50:09;101254.25;;;9.62;76.95
37298;BME280;30517;51.932;4.278;2022-12-24T10:52:58;101255.16;;;9.64;77.11
37298;BME280;30517;51.932;4.278;2022-12-24T10:55:41;101223.38;;;9.47;77.29
37298;BME280;30517;51.932;4.278;2022-12-24T10:58:22;101253.41;;;9.68;77.40
37298;BME280;30517;51.932;4.278;2022-12-24T11:01:03;101242.84;;;9.62;77.19
37298;BME280;30517;51.932;4.278;2022-12-24T11:03:44;101242.81;;;9.60;77.04
37298;BME280;30517;51.932;4.278;2022-12-24T11:06:25;101252.53;;;9.67;76.92
37298;BME280;30517;51.932;4.278;2022-12-24T11:09:20;101255.16;;;9.64;77.49
37298;BME280;30517;51.932;4.278;2022-12-24T11:12:05;101248.97;;;9.64;77.25
37298;BME280;30517;51.932;4.278;2022-12-24T11:14:46;101256.94;;;9.70;76.92
37298;BME280;30517;51.932;4.278;2022-12-24T11:17:28;101260.47;;;9.70;77.19
37298;BME280;30517;51.932;4.278;2022-12-24T11:20:23;101238.41;;;9.59;76.83
37298;BME280;30517;51.932;4.278;2022-12-24T11:23:14;101265.69;;;9.69;77.15
37298;BME280;30517;51.932;4.278;2022-12-24T11:25:57;101254.31;;;9.70;77.08
37298;BME280;30517;51.932;4.278;2022-12-24T11:28:38;101266.56;;;9.66;77.36
37298;BME280;30517;51.932;4.278;2022-12-24T11:31:19;101270.13;;;9.70;76.96
37298;BME280;30517;51.932;4.278;2022-12-24T11:34:26;101274.47;;;9.66;77.37
37298;BME280;30517;51.932;4.278;2022-12-24T11:37:22;101281.50;;;9.67;77.04
37298;BME280;30517;51.932;4.278;2022-12-24T11:40:03;101267.47;;;9.71;77.15
37298;BME280;30517;51.932;4.278;2022-12-24T11:42:44;101279.72;;;9.65;77.72
37298;BME280;30517;51.932;4.278;2022-12-24T11:45:30;101245.41;;;9.54;77.51
37298;BME280;30517;51.932;4.278;2022-12-24T11:48:33;101264.81;;;9.67;77.31
37298;BME280;30517;51.932;4.278;2022-12-24T11:56:51;101284.16;;;9.70;77.47
37298;BME280;30517;51.932;4.278;2022-12-24T11:59:43;101283.25;;;9.68;77.63
37298;BME280;30517;51.932;4.278;2022-12-24T12:02:29;101287.63;;;9.66;77.79
37298;BME280;30517;51.932;4.278;2022-12-24T12:05:24;101274.47;;;9.68;77.66
37298;BME280;30517;51.932;4.278;2022-12-24T12:08:14;101272.72;;;9.67;77.48
37298;BME280;30517;51.932;4.278;2022-12-24T12:10:57;101276.22;;;9.69;77.69
37298;BME280;30517;51.932;4.278;2022-12-24T12:13:42;101270.06;;;9.62;77.40
37298;BME280;30517;51.932;4.278;2022-12-24T12:16:29;101255.03;;;9.50;77.65
37298;BME280;30517;51.932;4.278;2022-12-24T12:19:43;101292.91;;;9.66;77.94
37298;BME280;30517;51.932;4.278;2022-12-24T12:22:42;101294.69;;;9.67;77.60
37298;BME280;30517;51.932;4.278;2022-12-24T12:25:32;101296.38;;;9.62;77.57
37298;BME280;30517;51.932;4.278;2022-12-24T12:28:26;101313.94;;;9.63;78.18
37298;BME280;30517;51.932;4.278;2022-12-24T12:33:54;101303.44;;;9.66;77.89
37298;BME280;30517;51.932;4.278;2022-12-24T12:36:49;101303.50;;;9.69;77.60
37298;BME280;30517;51.932;4.278;2022-12-24T12:39:31;101315.75;;;9.67;78.08
37298;BME280;30517;51.932;4.278;2022-12-24T12:45:38;101322.78;;;9.67;77.54
37298;BME280;30517;51.932;4.278;2022-12-24T12:48:42;101335.09;;;9.69;77.74
37298;BME280;30517;51.932;4.278;2022-12-24T12:51:35;101321.03;;;9.67;77.89
37298;BME280;30517;51.932;4.278;2022-12-24T12:54:31;101316.59;;;9.65;78.05
37298;BME280;30517;51.932;4.278;2022-12-24T12:57:17;101324.56;;;9.69;77.81
37298;BME280;30517;51.932;4.278;2022-12-24T13:00:05;101329.84;;;9.72;77.11
37298;BME280;30517;51.932;4.278;2022-12-24T13:02:51;101328.06;;;9.71;77.43
37298;BME280;30517;51.932;4.278;2022-12-24T13:12:32;101170.75;;;8.54;78.65
37298;BME280;30517;51.932;4.278;2022-12-24T13:15:23;101341.09;;;9.58;78.43
37298;BME280;30517;51.932;4.278;2022-12-24T13:18:37;101334.13;;;9.63;78.42
37298;BME280;30517;51.932;4.278;2022-12-24T13:21:24;101344.75;;;9.72;77.86
37298;BME280;30517;51.932;4.278;2022-12-24T13:24:17;101348.28;;;9.74;77.59
37298;BME280;30517;51.932;4.278;2022-12-24T13:27:19;101347.41;;;9.73;77.29
37298;BME280;30517;51.932;4.278;2022-12-24T13:30:37;101343.94;;;9.78;77.35
37298;BME280;30517;51.932;4.278;2022-12-24T13:36:19;101333.44;;;9.85;77.10
37298;BME280;30517;51.932;4.278;2022-12-24T13:39:00;101333.34;;;9.74;76.87
37298;BME280;30517;51.932;4.278;2022-12-24T13:41:49;101339.59;;;9.81;77.05
37298;BME280;30517;51.932;4.278;2022-12-24T13:44:30;101345.78;;;9.88;77.25
37298;BME280;30517;51.932;4.278;2022-12-24T13:49:53;101352.00;;;9.94;76.89
37298;BME280;30517;51.932;4.278;2022-12-24T13:52:35;101357.25;;;9.93;77.11
37298;BME280;30517;51.932;4.278;2022-12-24T13:55:16;101349.25;;;9.85;76.98
37298;BME280;30517;51.932;4.278;2022-12-24T13:57:59;101366.91;;;9.92;76.89
37298;BME280;30517;51.932;4.278;2022-12-24T14:00:52;101312.22;;;9.65;76.72
37298;BME280;30517;51.932;4.278;2022-12-24T14:03:41;101354.59;;;9.90;76.70
37298;BME280;30517;51.932;4.278;2022-12-24T14:06:26;101358.16;;;9.98;76.80
37298;BME280;30517;51.932;4.278;2022-12-24T14:09:15;101360.75;;;9.93;76.85
37298;BME280;30517;51.932;4.278;2022-12-24T14:14:40;101329.91;;;9.79;76.77
37298;BME280;30517;51.932;4.278;2022-12-24T14:17:23;101350.19;;;9.90;77.13
37298;BME280;30517;51.932;4.278;2022-12-24T14:20:07;101358.16;;;9.98;76.69
37298;BME280;30517;51.932;4.278;2022-12-24T14:22:48;101356.38;;;9.94;76.95
37298;BME280;30517;51.932;4.278;2022-12-24T14:25:30;101256.66;;;9.39;76.90
37298;BME280;30517;51.932;4.278;2022-12-24T14:28:14;101363.44;;;9.98;76.85
37298;BME280;30517;51.932;4.278;2022-12-24T14:31:02;101357.22;;;9.88;77.26
37298;BME280;30517;51.932;4.278;2022-12-24T14:33:44;101368.69;;;9.98;76.94
37298;BME280;30517;51.932;4.278;2022-12-24T14:36:25;101325.53;;;9.81;76.64
37298;BME280;30517;51.932;4.278;2022-12-24T14:39:08;101371.34;;;10.01;76.86
37298;BME280;30517;51.932;4.278;2022-12-24T14:42:19;101374.88;;;10.00;76.95
37298;BME280;30517;51.932;4.278;2022-12-24T14:45:24;101374.00;;;10.01;77.05
37298;BME280;30517;51.932;4.278;2022-12-24T14:48:15;101373.06;;;9.93;76.55
37298;BME280;30517;51.932;4.278;2022-12-24T14:54:16;101395.09;;;10.01;76.81
37298;BME280;30517;51.932;4.278;2022-12-24T14:57:10;101398.63;;;10.03;76.95
37298;BME280;30517;51.932;4.278;2022-12-24T14:59:54;101397.75;;;10.03;77.00
37298;BME280;30517;51.932;4.278;2022-12-24T15:02:36;101396.94;;;10.11;76.30
37298;BME280;30517;51.932;4.278;2022-12-24T15:05:25;101388.09;;;10.06;76.33
37298;BME280;30517;51.932;4.278;2022-12-24T15:08:11;101386.28;;;10.01;76.54
37298;BME280;30517;51.932;4.278;2022-12-24T15:10:59;101396.00;;;10.05;76.70
37298;BME280;30517;51.932;4.278;2022-12-24T15:13:43;101400.44;;;10.07;76.71
37298;BME280;30517;51.932;4.278;2022-12-24T15:16:34;101375.66;;;9.90;76.72
37298;BME280;30517;51.932;4.278;2022-12-24T15:19:45;101401.28;;;10.05;76.62
37298;BME280;30517;51.932;4.278;2022-12-24T15:22:28;101412.69;;;10.07;76.68
37298;BME280;30517;51.932;4.278;2022-12-24T15:25:22;101398.59;;;10.00;76.38
37298;BME280;30517;51.932;4.278;2022-12-24T15:28:17;101400.38;;;10.04;76.46
37298;BME280;30517;51.932;4.278;2022-12-24T15:31:13;101373.94;;;9.95;75.97
37298;BME280;30517;51.932;4.278;2022-12-24T15:33:56;101410.97;;;10.07;76.51
37298;BME280;30517;51.932;4.278;2022-12-24T15:36:38;101422.41;;;10.12;76.40